createdAt,value
2022-09-06T00:03:54.285Z,70.61
2022-09-06T00:09:24.281Z,69.98
2022-09-06T00:14:26.137Z,69.70
2022-09-06T00:19:27.895Z,69.81
2022-09-06T00:24:29.741Z,69.84
2022-09-06T00:29:31.856Z,69.78
2022-09-06T00:34:33.957Z,69.83
2022-09-06T00:39:35.816Z,69.88
2022-09-06T00:44:38.527Z,69.48
2022-09-06T00:49:47.574Z,69.28
2022-09-06T00:54:50.286Z,68.96
2022-09-06T00:59:52.146Z,68.60
2022-09-06T01:04:54.975Z,68.55
2022-09-06T01:10:15.370Z,68.31
2022-09-06T01:15:35.959Z,68.20
2022-09-06T01:20:42.605Z,68.05
2022-09-06T01:26:10.845Z,67.99
2022-09-06T01:31:19.046Z,67.99
2022-09-06T01:36:54.366Z,67.76
2022-09-06T01:42:22.170Z,67.71
2022-09-06T01:47:30.256Z,67.71
2022-09-06T01:52:50.657Z,67.62
2022-09-06T01:58:24.214Z,67.73
2022-09-06T02:03:56.906Z,67.96
2022-09-06T02:09:07.675Z,67.85
2022-09-06T02:14:11.914Z,67.74
2022-09-06T02:19:37.098Z,67.73
2022-09-06T02:24:40.784Z,67.74
2022-09-06T02:29:42.596Z,67.93
2022-09-06T02:34:46.229Z,67.93
2022-09-06T02:39:53.699Z,68.04
2022-09-06T02:45:02.547Z,68.26
2022-09-06T02:50:04.354Z,68.29
2022-09-06T02:55:19.194Z,68.40
2022-09-06T03:00:34.727Z,68.58
2022-09-06T03:05:36.774Z,68.52
2022-09-06T03:10:38.518Z,68.36
2022-09-06T03:15:40.296Z,68.29
2022-09-06T03:20:42.036Z,68.57
2022-09-06T03:25:44.716Z,68.64
2022-09-06T03:30:47.372Z,68.84
2022-09-06T03:35:50.416Z,69.52
2022-09-06T03:40:52.979Z,69.98
2022-09-06T03:45:57.134Z,70.18
2022-09-06T03:50:59.205Z,70.41
2022-09-06T03:56:00.933Z,70.56
2022-09-06T04:01:04.997Z,70.57
2022-09-06T04:06:07.457Z,70.67
2022-09-06T04:11:09.253Z,70.79
2022-09-06T04:16:11.410Z,70.84
2022-09-06T04:21:13.171Z,70.56
2022-09-06T04:26:15.113Z,70.34
2022-09-06T04:31:17.192Z,70.10
2022-09-06T04:36:19.211Z,69.87
2022-09-06T04:41:22.481Z,69.78
2022-09-06T04:46:25.410Z,69.25
2022-09-06T04:51:27.762Z,66.95
2022-09-06T04:56:30.257Z,64.14
2022-09-06T05:01:32.176Z,61.58
2022-09-06T05:06:34.246Z,60.03
2022-09-06T05:11:36.074Z,60.51
2022-09-06T05:16:37.942Z,61.59
2022-09-06T05:21:39.892Z,62.12
2022-09-06T05:26:42.000Z,62.73
2022-09-06T05:31:43.922Z,62.65
2022-09-06T05:36:46.320Z,62.70
2022-09-06T05:41:48.109Z,62.49
2022-09-06T05:46:49.811Z,62.94
2022-09-06T05:51:52.273Z,63.30
2022-09-06T05:56:54.057Z,62.99
2022-09-06T06:01:55.834Z,62.92
2022-09-06T06:06:57.601Z,62.32
2022-09-06T06:11:59.308Z,63.06
2022-09-06T06:17:02.019Z,62.82
2022-09-06T06:22:03.868Z,61.94
2022-09-06T06:27:05.583Z,61.22
2022-09-06T06:32:07.292Z,60.25
2022-09-06T06:37:09.129Z,59.39
2022-09-06T06:42:11.024Z,58.51
2022-09-06T06:47:16.764Z,59.12
2022-09-06T06:52:18.549Z,59.52
2022-09-06T06:57:20.378Z,58.10
2022-09-06T07:02:22.321Z,59.24
2022-09-06T07:07:32.285Z,59.74
2022-09-06T07:12:35.747Z,59.65
2022-09-06T07:17:37.788Z,59.08
2022-09-06T07:22:54.442Z,59.36
2022-09-06T07:27:59.033Z,59.80
2022-09-06T07:33:01.575Z,60.41
2022-09-06T07:38:04.868Z,61.29
2022-09-06T07:43:06.801Z,61.87
2022-09-06T07:48:08.629Z,64.73
2022-09-06T07:53:15.110Z,66.77
2022-09-06T07:58:19.396Z,67.17
2022-09-06T08:03:21.265Z,65.38
2022-09-06T08:14:00.217Z,62.31
2022-09-06T08:19:03.907Z,61.56
2022-09-06T08:24:06.887Z,59.10
2022-09-06T08:29:09.224Z,57.61
2022-09-06T08:34:12.838Z,58.22
2022-09-06T08:39:21.183Z,58.53
2022-09-06T08:44:55.360Z,58.03
2022-09-06T08:50:13.160Z,59.69
2022-09-06T08:55:47.491Z,60.13
2022-09-06T09:01:07.671Z,60.01
2022-09-06T09:06:10.447Z,59.66
2022-09-06T09:11:17.560Z,59.20
2022-09-06T09:16:33.273Z,58.12
2022-09-06T09:21:48.580Z,57.45
2022-09-06T09:27:05.699Z,56.47
2022-09-06T09:32:08.379Z,55.66
2022-09-06T09:42:35.729Z,54.48
2022-09-06T09:47:37.426Z,53.40
2022-09-06T09:52:43.472Z,52.48
2022-09-06T09:57:47.242Z,51.28
2022-09-06T10:02:50.070Z,50.02
2022-09-06T10:07:51.986Z,48.70
2022-09-06T10:13:12.459Z,47.14
2022-09-06T10:18:29.308Z,45.86
2022-09-06T10:29:09.792Z,44.17
2022-09-06T10:34:17.221Z,43.31
2022-09-06T10:39:21.787Z,43.35
2022-09-06T10:44:26.293Z,43.58
2022-09-06T10:49:28.689Z,43.91
2022-09-06T10:54:31.080Z,43.69
2022-09-06T10:59:42.121Z,42.96
2022-09-06T11:10:27.679Z,41.99
2022-09-06T11:15:33.099Z,41.49
2022-09-06T11:20:53.712Z,41.12
2022-09-06T11:26:19.348Z,40.49
2022-09-06T11:36:48.000Z,40.50
2022-09-06T11:41:49.756Z,41.10
2022-09-06T11:46:51.489Z,40.54
2022-09-06T11:51:53.835Z,38.63
2022-09-06T11:57:03.640Z,38.38
2022-09-06T12:02:07.031Z,38.20
2022-09-06T12:07:11.172Z,38.58
2022-09-06T12:12:32.837Z,39.28
2022-09-06T12:17:46.717Z,39.27
2022-09-06T12:22:48.632Z,39.06
2022-09-06T12:27:52.621Z,38.87
2022-09-06T12:32:54.416Z,39.49
2022-09-06T12:38:00.162Z,39.79
2022-09-06T12:43:03.507Z,40.48
2022-09-06T12:48:09.522Z,40.60
2022-09-06T12:53:24.556Z,40.04
2022-09-06T12:58:29.622Z,40.06
2022-09-06T13:03:40.649Z,40.17
2022-09-06T13:08:45.617Z,40.08
2022-09-06T13:13:49.102Z,40.06
2022-09-06T13:18:51.011Z,40.24
2022-09-06T13:23:52.982Z,40.75
2022-09-06T13:28:54.658Z,40.97
2022-09-06T18:21:31.098Z,61.14
2022-09-06T18:26:33.328Z,61.01
2022-09-06T18:31:35.750Z,61.06
2022-09-06T18:36:38.249Z,61.23
2022-09-06T18:41:58.457Z,61.67
2022-09-06T18:47:06.799Z,62.14
2022-09-06T18:52:08.676Z,63.58
2022-09-06T18:57:11.239Z,64.25
2022-09-06T19:02:13.150Z,64.14
2022-09-06T19:16:19.800Z,63.99
2022-09-06T19:21:24.790Z,63.85
2022-09-06T19:26:29.303Z,64.10
2022-09-06T19:31:42.333Z,64.10
2022-09-06T19:36:45.098Z,63.86
2022-09-06T19:41:47.799Z,66.61
2022-09-06T19:46:49.868Z,68.02
2022-09-06T19:51:53.124Z,63.38
2022-09-06T19:56:54.828Z,57.37
2022-09-06T20:01:56.886Z,55.34
2022-09-06T20:06:58.722Z,56.51
2022-09-06T20:12:00.432Z,57.96
2022-09-06T20:17:22.749Z,59.31
2022-09-06T20:22:24.205Z,60.27
2022-09-06T20:27:25.954Z,61.04
2022-09-06T20:32:49.332Z,66.83
2022-09-06T20:38:04.689Z,67.90
2022-09-06T20:43:12.807Z,62.64
2022-09-06T20:48:14.560Z,59.91
2022-09-06T20:53:16.308Z,54.84
2022-09-06T20:58:18.079Z,53.86
2022-09-06T21:03:20.546Z,54.98
2022-09-06T21:08:41.875Z,56.45
2022-09-06T21:14:05.293Z,57.46
2022-09-06T21:19:12.526Z,58.71
2022-09-06T21:24:14.829Z,60.03
2022-09-06T21:29:16.595Z,60.70
2022-09-06T21:34:18.454Z,60.73
2022-09-06T21:39:20.180Z,60.90
2022-09-06T21:44:22.077Z,60.99
2022-09-06T21:49:23.788Z,60.96
2022-09-06T21:54:25.624Z,61.17
2022-09-06T21:59:47.288Z,61.29
2022-09-06T22:04:59.532Z,61.20
2022-09-06T22:10:01.272Z,62.53
2022-09-06T22:15:03.326Z,64.96
2022-09-06T22:20:06.646Z,62.95
2022-09-06T22:25:08.652Z,58.33
2022-09-06T22:30:11.135Z,55.52
2022-09-06T22:35:12.994Z,56.57
2022-09-06T22:40:14.937Z,57.88
2022-09-06T22:45:19.839Z,59.25
2022-09-06T22:50:21.618Z,60.55
2022-09-06T22:55:24.245Z,61.34
2022-09-06T23:00:27.473Z,66.22
2022-09-06T23:05:31.401Z,68.31
2022-09-06T23:10:33.224Z,64.90
2022-09-06T23:15:36.453Z,61.65
2022-09-06T23:20:38.301Z,57.39
2022-09-06T23:25:40.356Z,54.96
2022-09-06T23:30:42.084Z,56.73
2022-09-06T23:35:50.285Z,58.42
2022-09-06T23:40:52.152Z,59.27
2022-09-06T23:45:53.960Z,60.18
2022-09-06T23:50:55.707Z,60.80
2022-09-06T23:55:57.781Z,61.24
